createdAt,value
2017-11-01T00:00:22.387Z,26.40
2017-11-01T00:02:52.156Z,24.73
2017-11-01T00:05:20.511Z,25.47
2017-11-01T00:07:48.962Z,24.17
2017-11-01T00:10:18.256Z,25.50
2017-11-01T00:12:47.180Z,23.40
2017-11-01T00:15:16.350Z,23.87
2017-11-01T00:17:45.742Z,21.73
2017-11-01T00:20:14.419Z,20.03
2017-11-01T00:22:43.605Z,22.60
2017-11-01T00:25:12.034Z,23.03
2017-11-01T00:27:41.211Z,23.70
2017-11-01T00:30:09.578Z,21.60
2017-11-01T00:32:38.629Z,21.67
2017-11-01T00:35:07.815Z,22.00
2017-11-01T00:37:36.173Z,21.60
2017-11-01T00:40:06.078Z,21.57
2017-11-01T00:42:34.462Z,22.87
2017-11-01T00:45:03.836Z,22.13
2017-11-01T00:47:32.213Z,22.53
2017-11-01T00:50:00.585Z,22.67
2017-11-01T00:52:28.933Z,22.90
2017-11-01T00:54:57.918Z,22.87
2017-11-01T00:57:26.274Z,22.60
2017-11-01T00:59:54.639Z,23.57
2017-11-01T01:02:24.685Z,22.77
2017-11-01T01:04:53.754Z,23.53
2017-11-01T01:07:22.378Z,23.93
2017-11-01T01:09:51.790Z,23.80
2017-11-01T01:12:20.127Z,22.20
2017-11-01T01:14:50.188Z,22.50
2017-11-01T01:17:18.853Z,23.20
2017-11-01T01:19:47.189Z,22.23
2017-11-01T01:22:15.550Z,22.00
2017-11-01T01:24:44.565Z,23.90
2017-11-01T01:27:12.926Z,22.77
2017-11-01T01:29:41.315Z,21.83
2017-11-01T01:32:10.838Z,22.40
2017-11-01T01:34:39.190Z,21.73
2017-11-01T01:37:08.150Z,23.20
2017-11-01T01:39:37.442Z,22.33
2017-11-01T01:42:06.551Z,21.93
2017-11-01T01:44:39.402Z,22.33
2017-11-01T01:47:08.654Z,21.53
2017-11-01T01:49:37.041Z,21.50
2017-11-01T01:52:05.615Z,21.47
2017-11-01T01:54:34.007Z,21.20
2017-11-01T01:57:02.390Z,20.77
2017-11-01T01:59:30.751Z,22.13
2017-11-01T02:01:59.427Z,21.07
2017-11-01T02:04:28.554Z,21.17
2017-11-01T02:06:56.925Z,22.50
2017-11-01T02:09:25.311Z,20.90
2017-11-01T02:11:53.741Z,22.80
2017-11-01T02:14:22.860Z,22.23
2017-11-01T02:16:52.005Z,19.60
2017-11-01T02:19:20.356Z,19.77
2017-11-01T02:21:48.700Z,20.30
2017-11-01T02:24:17.139Z,21.07
2017-11-01T02:26:46.703Z,19.67
2017-11-01T02:29:15.065Z,20.10
2017-11-01T02:31:44.224Z,19.43
2017-11-01T02:34:12.575Z,20.50
2017-11-01T02:36:40.936Z,18.90
2017-11-01T02:39:09.303Z,18.17
2017-11-01T02:41:38.941Z,19.10
2017-11-01T02:44:07.315Z,18.33
2017-11-01T02:46:36.274Z,19.87
2017-11-01T02:49:04.647Z,19.37
2017-11-01T02:51:33.848Z,18.70
2017-11-01T02:54:02.291Z,19.50
2017-11-01T02:56:32.098Z,19.27
2017-11-01T02:59:01.201Z,21.00
2017-11-01T03:01:32.341Z,18.90
2017-11-01T03:04:00.745Z,19.23
2017-11-01T03:06:29.245Z,20.73
2017-11-01T03:08:58.603Z,20.30
2017-11-01T03:11:27.529Z,19.87
2017-11-01T03:13:55.886Z,20.00
2017-11-01T03:16:24.321Z,19.70
2017-11-01T03:18:52.747Z,20.50
2017-11-01T03:21:21.114Z,21.17
2017-11-01T03:23:50.270Z,20.90
2017-11-01T03:26:18.637Z,22.37
2017-11-01T03:28:47.804Z,21.87
2017-11-01T03:31:16.416Z,20.90
2017-11-01T03:33:45.866Z,23.00
2017-11-01T03:36:14.242Z,21.20
2017-11-01T03:38:42.800Z,21.63
2017-11-01T03:41:11.977Z,22.97
2017-11-01T03:43:41.129Z,23.57
2017-11-01T03:46:09.558Z,22.50
2017-11-01T03:48:37.994Z,23.60
2017-11-01T03:51:06.499Z,24.17
2017-11-01T03:53:34.925Z,24.80
2017-11-01T03:56:03.374Z,24.00
2017-11-01T03:58:31.744Z,23.80
2017-11-01T04:01:00.202Z,24.90
2017-11-01T04:03:29.374Z,25.60
2017-11-01T04:05:57.805Z,25.80
2017-11-01T04:08:26.216Z,25.40
2017-11-01T04:10:55.457Z,25.40
2017-11-01T04:13:23.917Z,27.00
2017-11-01T04:15:52.705Z,27.80
2017-11-01T04:21:30.496Z,27.37
2017-11-01T04:24:00.014Z,30.60
2017-11-01T04:26:29.466Z,30.53
2017-11-01T04:28:58.956Z,29.17
2017-11-01T04:31:27.496Z,30.07
2017-11-01T04:33:56.643Z,31.63
2017-11-01T04:36:26.133Z,29.60
2017-11-01T04:38:55.004Z,31.73
2017-11-01T04:41:23.744Z,29.33
2017-11-01T04:43:52.386Z,30.73
2017-11-01T04:46:20.816Z,29.57
2017-11-01T04:48:51.958Z,32.33
2017-11-01T04:51:27.673Z,30.37
2017-11-01T04:53:56.026Z,31.50
2017-11-01T04:56:25.134Z,31.37
2017-11-01T04:58:54.223Z,29.53
2017-11-01T05:01:22.576Z,31.10
2017-11-01T05:03:51.694Z,30.97
2017-11-01T05:06:20.078Z,31.53
2017-11-01T05:08:51.418Z,32.20
2017-11-01T05:11:22.938Z,31.80
2017-11-01T05:13:58.395Z,31.53
2017-11-01T05:16:27.648Z,30.83
2017-11-01T05:18:55.993Z,31.27
2017-11-01T05:21:25.037Z,30.70
2017-11-01T05:23:53.413Z,32.70
2017-11-01T05:26:21.761Z,31.07
2017-11-01T05:28:50.117Z,31.37
2017-11-01T05:31:20.857Z,31.03
2017-11-01T05:33:49.200Z,31.40
2017-11-01T05:36:17.632Z,32.60
2017-11-01T05:38:46.023Z,31.80
2017-11-01T05:41:14.369Z,34.27
2017-11-01T05:43:43.486Z,33.20
2017-11-01T05:46:11.861Z,32.50
2017-11-01T05:48:40.937Z,34.83
2017-11-01T05:51:10.158Z,34.83
2017-11-01T05:53:39.665Z,33.60
2017-11-01T05:56:08.025Z,35.33
2017-11-01T05:58:37.144Z,35.80
2017-11-01T06:01:06.430Z,36.67
2017-11-01T06:03:34.802Z,36.00
2017-11-01T06:06:03.869Z,37.67
2017-11-01T06:08:32.626Z,39.70
2017-11-01T06:11:01.977Z,35.73
2017-11-01T06:13:30.309Z,37.20
2017-11-01T06:16:00.628Z,38.57
2017-11-01T06:18:30.651Z,38.03
2017-11-01T06:20:58.998Z,37.80
2017-11-01T06:23:28.135Z,39.43
2017-11-01T06:25:56.508Z,38.30
2017-11-01T06:28:24.876Z,37.73
2017-11-01T06:30:54.600Z,38.80
2017-11-01T06:33:23.984Z,36.60
2017-11-01T06:35:52.334Z,35.87
2017-11-01T06:38:22.514Z,35.37
2017-11-01T06:40:51.165Z,36.10
2017-11-01T06:43:19.584Z,35.13
2017-11-01T06:45:47.942Z,33.57
2017-11-01T06:48:16.293Z,35.70
2017-11-01T06:50:45.422Z,34.57
2017-11-01T06:53:13.800Z,32.37
2017-11-01T06:55:42.357Z,32.10
2017-11-01T06:58:11.400Z,30.40
2017-11-01T07:00:39.889Z,29.10
2017-11-01T07:06:09.858Z,28.87
2017-11-01T07:08:38.221Z,29.73
2017-11-01T07:11:07.101Z,28.97
2017-11-01T07:13:35.516Z,27.50
2017-11-01T07:16:04.629Z,28.30
2017-11-01T07:18:32.990Z,27.40
2017-11-01T07:21:01.881Z,27.53
2017-11-01T07:23:30.533Z,30.40
2017-11-01T07:25:59.580Z,30.30
2017-11-01T07:28:28.301Z,28.50
2017-11-01T07:30:57.428Z,27.43
2017-11-01T07:33:26.553Z,29.90
2017-11-01T07:35:55.701Z,28.73
2017-11-01T07:38:24.821Z,30.13
2017-11-01T07:40:53.187Z,31.20
2017-11-01T07:43:23.289Z,30.53
2017-11-01T07:45:51.660Z,31.97
2017-11-01T07:48:20.046Z,31.97
2017-11-01T07:50:48.524Z,32.57
2017-11-01T07:53:16.870Z,31.60
2017-11-01T07:55:45.218Z,32.83
2017-11-01T07:58:14.484Z,34.17
2017-11-01T08:00:44.312Z,33.70
2017-11-01T08:03:13.503Z,35.67
2017-11-01T08:05:42.077Z,35.03
2017-11-01T08:08:10.442Z,35.47
2017-11-01T08:10:39.749Z,36.43
2017-11-01T08:13:10.294Z,35.80
2017-11-01T08:15:38.861Z,36.20
2017-11-01T08:18:07.232Z,35.67
2017-11-01T08:20:35.627Z,35.73
2017-11-01T08:23:03.974Z,36.83
2017-11-01T08:25:32.852Z,36.67
2017-11-01T08:28:01.298Z,33.23
2017-11-01T08:30:30.482Z,37.73
2017-11-01T08:32:58.853Z,35.30
2017-11-01T08:35:27.537Z,35.60
2017-11-01T08:37:56.630Z,35.90
2017-11-01T08:40:24.977Z,35.30
2017-11-01T08:42:53.713Z,33.37
2017-11-01T08:45:22.063Z,37.20
2017-11-01T08:47:50.425Z,35.50
2017-11-01T08:50:19.416Z,32.27
2017-11-01T08:52:47.784Z,30.77
2017-11-01T08:55:16.893Z,30.20
2017-11-01T08:57:45.261Z,29.37
2017-11-01T09:00:13.723Z,29.00
2017-11-01T09:02:42.109Z,29.60
2017-11-01T09:05:11.293Z,29.67
2017-11-01T09:07:41.134Z,31.33
2017-11-01T09:10:11.713Z,30.63
2017-11-01T09:12:40.391Z,31.37
2017-11-01T09:15:08.762Z,28.63
2017-11-01T09:17:37.197Z,30.30
2017-11-01T09:20:05.572Z,29.70
2017-11-01T09:22:34.831Z,31.57
2017-11-01T09:25:03.206Z,29.50
2017-11-01T09:27:32.337Z,28.60
2017-11-01T09:30:00.760Z,29.30
2017-11-01T09:32:29.143Z,29.20
2017-11-01T09:34:58.437Z,28.30
2017-11-01T09:37:26.791Z,29.00
2017-11-01T09:39:56.313Z,28.27
2017-11-01T09:42:25.497Z,28.80
2017-11-01T09:44:55.282Z,29.17
2017-11-01T09:47:23.646Z,28.47
2017-11-01T09:49:52.050Z,30.77
2017-11-01T09:52:20.397Z,26.40
2017-11-01T09:54:50.482Z,25.30
2017-11-01T09:57:20.423Z,25.63
2017-11-01T09:59:49.511Z,26.93
2017-11-01T10:02:20.138Z,25.50
2017-11-01T10:04:48.502Z,26.07
2017-11-01T10:07:18.645Z,25.53
2017-11-01T10:09:47.744Z,25.00
2017-11-01T10:12:16.865Z,24.97
2017-11-01T10:14:46.057Z,23.93
2017-11-01T10:17:14.452Z,24.77
2017-11-01T10:19:43.437Z,25.13
2017-11-01T10:22:12.607Z,24.53
2017-11-01T10:24:42.210Z,24.90
2017-11-01T10:27:10.562Z,24.37
2017-11-01T10:29:39.786Z,24.87
2017-11-01T10:32:08.305Z,24.93
2017-11-01T10:34:36.694Z,24.53
2017-11-01T10:37:05.074Z,26.80
2017-11-01T10:39:34.224Z,26.60
2017-11-01T10:42:03.775Z,25.70
2017-11-01T10:44:32.127Z,25.70
2017-11-01T10:47:00.498Z,27.43
2017-11-01T10:49:28.907Z,25.43
2017-11-01T10:51:57.246Z,27.40
2017-11-01T10:54:25.590Z,26.47
2017-11-01T10:56:53.972Z,26.57
2017-11-01T10:59:22.301Z,25.97
2017-11-01T11:01:50.656Z,26.00
2017-11-01T11:04:20.102Z,26.20
2017-11-01T11:06:48.453Z,27.93
2017-11-01T11:09:16.788Z,28.10
2017-11-01T11:11:47.770Z,27.33
2017-11-01T11:14:16.939Z,27.07
2017-11-01T11:16:45.290Z,26.90
2017-11-01T11:19:13.677Z,30.07
2017-11-01T11:21:42.028Z,29.00
2017-11-01T11:24:10.350Z,30.50
2017-11-01T11:26:40.266Z,30.27
2017-11-01T11:29:10.284Z,29.40
2017-11-01T11:31:38.643Z,32.30
2017-11-01T11:34:08.259Z,29.80
2017-11-01T11:36:36.593Z,31.77
2017-11-01T11:39:04.941Z,31.30
2017-11-01T11:41:33.323Z,31.00
2017-11-01T11:44:01.674Z,31.87
2017-11-01T11:46:30.020Z,32.13
2017-11-01T11:48:58.593Z,31.43
2017-11-01T11:51:26.939Z,32.30
2017-11-01T11:53:55.299Z,33.53
2017-11-01T11:56:25.414Z,34.97
2017-11-01T11:58:53.766Z,32.17
2017-11-01T12:01:22.145Z,32.87
2017-11-01T12:03:51.854Z,33.20
2017-11-01T12:06:20.217Z,33.03
2017-11-01T12:08:48.584Z,33.93
2017-11-01T12:11:17.355Z,34.87
2017-11-01T12:13:45.720Z,35.37
2017-11-01T12:16:15.314Z,33.00
2017-11-01T12:18:44.199Z,34.80
2017-11-01T12:21:12.774Z,35.53
2017-11-01T12:23:41.129Z,34.77
2017-11-01T12:26:10.831Z,39.37
2017-11-01T12:28:39.190Z,36.93
2017-11-01T12:31:07.540Z,36.60
2017-11-01T12:33:36.269Z,37.13
2017-11-01T12:36:04.659Z,37.30
2017-11-01T12:38:33.016Z,36.20
2017-11-01T12:41:01.391Z,36.30
2017-11-01T12:43:30.107Z,38.40
2017-11-01T12:45:59.373Z,38.30
2017-11-01T12:48:28.526Z,37.40
2017-11-01T12:50:57.213Z,38.63
2017-11-01T12:53:25.580Z,37.47
2017-11-01T12:55:54.125Z,37.47
2017-11-01T12:58:22.467Z,38.50
2017-11-01T13:00:51.590Z,37.03
2017-11-01T13:03:19.984Z,37.37
2017-11-01T13:05:48.357Z,38.30
2017-11-01T13:08:17.680Z,38.57
2017-11-01T13:10:46.814Z,37.10
2017-11-01T13:13:15.195Z,37.97
2017-11-01T13:15:43.573Z,35.70
2017-11-01T13:18:14.037Z,34.73
2017-11-01T13:20:43.180Z,35.93
2017-11-01T13:23:11.897Z,36.67
2017-11-01T13:25:41.225Z,37.27
2017-11-01T13:28:10.934Z,36.20
2017-11-01T13:30:41.105Z,35.50
2017-11-01T13:33:09.484Z,37.83
2017-11-01T13:35:37.867Z,37.23
2017-11-01T13:38:06.212Z,38.10
2017-11-01T13:40:35.202Z,37.20
2017-11-01T13:43:03.550Z,36.33
2017-11-01T13:45:32.715Z,38.40
2017-11-01T13:48:01.089Z,40.10
2017-11-01T13:50:30.275Z,38.17
2017-11-01T13:52:59.187Z,38.50
2017-11-01T13:55:28.274Z,37.23
2017-11-01T13:57:56.640Z,38.00
2017-11-01T14:00:24.974Z,41.73
2017-11-01T14:02:54.625Z,39.80
2017-11-01T14:05:24.146Z,40.40
2017-11-01T14:07:53.106Z,40.53
2017-11-01T14:10:21.486Z,38.80
2017-11-01T14:12:49.833Z,40.30
2017-11-01T14:15:18.176Z,39.60
2017-11-01T14:17:46.552Z,39.87
2017-11-01T14:20:14.893Z,40.33
2017-11-01T14:22:44.002Z,39.33
2017-11-01T14:25:12.914Z,42.27
2017-11-01T14:27:41.315Z,41.50
2017-11-01T14:30:10.975Z,42.13
2017-11-01T14:32:40.269Z,42.60
2017-11-01T14:35:09.602Z,42.40
2017-11-01T14:37:37.946Z,45.27
2017-11-01T14:40:07.086Z,43.97
2017-11-01T14:42:35.454Z,44.47
2017-11-01T14:45:03.803Z,46.13
2017-11-01T14:47:33.077Z,43.83
2017-11-01T14:50:01.476Z,46.87
2017-11-01T14:52:30.609Z,47.07
2017-11-01T14:54:59.015Z,45.90
2017-11-01T14:57:27.777Z,46.20
2017-11-01T14:59:56.114Z,44.17
2017-11-01T15:02:26.031Z,43.10
2017-11-01T15:04:55.840Z,46.40
2017-11-01T15:07:24.960Z,44.83
2017-11-01T15:09:54.694Z,43.53
2017-11-01T15:12:23.250Z,43.50
2017-11-01T15:14:52.357Z,45.20
2017-11-01T15:17:20.732Z,41.30
2017-11-01T15:19:49.074Z,42.37
2017-11-01T15:22:17.631Z,42.27
2017-11-01T15:24:46.019Z,39.93
2017-11-01T15:27:15.137Z,40.70
2017-11-01T15:29:43.480Z,39.73
2017-11-01T15:32:11.948Z,41.73
2017-11-01T15:34:40.572Z,40.80
2017-11-01T15:37:08.936Z,42.87
2017-11-01T15:39:38.020Z,40.47
2017-11-01T15:42:07.250Z,39.70
2017-11-01T15:44:35.690Z,41.00
2017-11-01T15:47:04.775Z,39.43
2017-11-01T15:49:33.123Z,39.77
2017-11-01T15:52:02.250Z,42.03
2017-11-01T15:54:31.714Z,42.27
2017-11-01T15:57:00.098Z,43.00
2017-11-01T15:59:28.460Z,41.60
2017-11-01T16:01:58.032Z,42.57
2017-11-01T16:04:26.387Z,43.60
2017-11-01T16:06:55.756Z,42.80
2017-11-01T16:09:24.124Z,43.57
2017-11-01T16:11:52.460Z,44.77
2017-11-01T16:14:20.832Z,43.10
2017-11-01T16:16:51.000Z,45.93
2017-11-01T16:19:19.350Z,42.83
2017-11-01T16:21:47.703Z,42.67
2017-11-01T16:24:16.723Z,43.87
2017-11-01T16:26:45.065Z,44.83
2017-11-01T16:29:15.919Z,43.63
2017-11-01T16:31:45.693Z,44.33
2017-11-01T16:34:14.745Z,45.07
2017-11-01T16:36:43.102Z,43.63
2017-11-01T16:39:11.703Z,43.70
2017-11-01T16:41:40.689Z,41.70
2017-11-01T16:44:09.021Z,42.97
2017-11-01T16:46:37.842Z,42.57
2017-11-01T16:49:06.948Z,41.33
2017-11-01T16:51:35.537Z,43.60
2017-11-01T16:54:03.936Z,45.10
2017-11-01T16:56:32.559Z,43.20
2017-11-01T16:59:02.276Z,44.33
2017-11-01T17:01:32.746Z,45.43
2017-11-01T17:04:01.094Z,44.27
2017-11-01T17:06:30.218Z,43.77
2017-11-01T17:08:58.997Z,43.50
2017-11-01T17:11:27.376Z,42.17
2017-11-01T17:13:55.743Z,40.20
2017-11-01T17:16:24.671Z,40.83
2017-11-01T17:18:53.015Z,39.47
2017-11-01T17:21:21.394Z,38.80
2017-11-01T17:23:49.956Z,40.27
2017-11-01T17:26:19.322Z,37.47
2017-11-01T17:28:47.686Z,38.40
2017-11-01T17:31:16.117Z,37.10
2017-11-01T17:33:45.261Z,36.30
2017-11-01T17:36:13.649Z,37.10
2017-11-01T17:38:42.099Z,38.67
2017-11-01T17:41:11.222Z,38.63
2017-11-01T17:43:39.569Z,38.33
2017-11-01T17:46:08.115Z,37.60
2017-11-01T17:48:36.471Z,41.00
2017-11-01T17:51:05.727Z,35.23
2017-11-01T17:53:34.901Z,37.60
2017-11-01T17:56:03.593Z,36.27
2017-11-01T17:58:31.955Z,37.20
2017-11-01T18:01:00.373Z,37.83
2017-11-01T18:03:28.751Z,35.87
2017-11-01T18:05:57.875Z,35.13
2017-11-01T18:08:26.381Z,38.50
2017-11-01T18:10:54.780Z,39.23
2017-11-01T18:13:23.147Z,38.80
2017-11-01T18:15:52.509Z,41.90
2017-11-01T18:18:21.677Z,39.77
2017-11-01T18:20:50.062Z,42.03
2017-11-01T18:23:19.214Z,42.13
2017-11-01T18:25:48.339Z,41.97
2017-11-01T18:28:17.665Z,37.03
2017-11-01T18:30:46.285Z,39.47
2017-11-01T18:33:16.090Z,39.87
2017-11-01T18:35:44.441Z,44.13
2017-11-01T18:38:13.692Z,41.70
2017-11-01T18:40:43.616Z,42.60
2017-11-01T18:43:13.216Z,40.80
2017-11-01T18:45:41.604Z,42.93
2017-11-01T18:48:09.971Z,42.17
2017-11-01T18:50:38.760Z,44.90
2017-11-01T18:53:07.195Z,44.70
2017-11-01T18:55:36.574Z,42.17
2017-11-01T18:58:06.358Z,43.67
2017-11-01T19:00:34.748Z,43.60
2017-11-01T19:03:03.315Z,44.30
2017-11-01T19:05:31.667Z,43.00
2017-11-01T19:08:01.656Z,41.30
2017-11-01T19:10:30.001Z,42.60
2017-11-01T19:12:58.371Z,42.50
2017-11-01T19:15:27.155Z,44.40
2017-11-01T19:17:58.281Z,44.80
2017-11-01T19:20:26.694Z,43.97
2017-11-01T19:22:55.089Z,44.20
2017-11-01T19:25:23.432Z,46.33
2017-11-01T19:27:52.021Z,45.00
2017-11-01T19:30:20.408Z,43.57
2017-11-01T19:32:49.520Z,43.53
2017-11-01T19:35:17.898Z,42.13
2017-11-01T19:37:47.252Z,44.50
2017-11-01T19:40:15.600Z,43.77
2017-11-01T19:42:44.758Z,45.50
2017-11-01T19:45:13.178Z,44.93
2017-11-01T19:47:42.158Z,47.23
2017-11-01T19:50:10.516Z,46.03
2017-11-01T19:52:38.913Z,45.27
2017-11-01T19:55:07.275Z,46.80
2017-11-01T19:57:36.747Z,44.90
2017-11-01T20:00:06.214Z,46.20
2017-11-01T20:02:34.969Z,44.97
2017-11-01T20:05:05.247Z,46.27
2017-11-01T20:07:35.206Z,47.90
2017-11-01T20:10:05.291Z,49.50
2017-11-01T20:12:34.513Z,47.50
2017-11-01T20:15:02.996Z,49.93
2017-11-01T20:17:31.359Z,46.87
2017-11-01T20:20:00.593Z,48.20
2017-11-01T20:22:29.308Z,50.43
2017-11-01T20:24:58.470Z,49.53
2017-11-01T20:27:28.027Z,51.20
2017-11-01T20:29:57.342Z,49.50
2017-11-01T20:32:27.184Z,53.17
2017-11-01T20:34:57.485Z,53.60
2017-11-01T20:37:26.624Z,51.97
2017-11-01T20:39:55.051Z,51.83
2017-11-01T20:42:23.498Z,52.30
2017-11-01T20:44:51.981Z,56.00
2017-11-01T20:47:20.854Z,53.13
2017-11-01T20:49:49.235Z,52.90
2017-11-01T20:52:17.651Z,53.80
2017-11-01T20:54:46.013Z,54.40
2017-11-01T20:57:14.603Z,55.00
2017-11-01T20:59:43.664Z,54.87
2017-11-01T21:02:12.273Z,56.20
2017-11-01T21:04:41.486Z,53.50
2017-11-01T21:07:09.954Z,54.87
2017-11-01T21:09:38.525Z,54.87
2017-11-01T21:12:07.235Z,54.40
2017-11-01T21:14:35.778Z,55.67
2017-11-01T21:17:04.195Z,51.83
2017-11-01T21:19:34.124Z,53.70
2017-11-01T21:22:02.605Z,53.87
2017-11-01T21:24:30.968Z,53.57
2017-11-01T21:26:59.300Z,52.50
2017-11-01T21:29:28.511Z,52.43
2017-11-01T21:31:56.882Z,53.17
2017-11-01T21:34:25.971Z,54.07
2017-11-01T21:36:55.157Z,54.83
2017-11-01T21:39:23.515Z,54.93
2017-11-01T21:41:51.876Z,55.90
2017-11-01T21:44:20.262Z,55.00
2017-11-01T21:46:48.637Z,54.90
2017-11-01T21:49:17.018Z,56.50
2017-11-01T21:51:45.618Z,57.00
2017-11-01T21:54:13.973Z,54.30
2017-11-01T21:56:42.580Z,49.87
2017-11-01T21:59:10.976Z,52.67
2017-11-01T22:01:40.115Z,50.57
2017-11-01T22:04:08.485Z,51.97
2017-11-01T22:06:38.102Z,48.57
2017-11-01T22:09:06.454Z,51.17
2017-11-01T22:11:35.501Z,50.03
2017-11-01T22:14:04.054Z,47.97
2017-11-01T22:16:32.428Z,46.53
2017-11-01T22:19:00.757Z,45.80
2017-11-01T22:21:29.151Z,44.73
2017-11-01T22:23:57.753Z,42.60
2017-11-01T22:26:26.630Z,43.60
2017-11-01T22:28:55.340Z,40.00
2017-11-01T22:31:23.924Z,38.67
2017-11-01T22:33:52.524Z,36.10
2017-11-01T22:36:21.772Z,36.90
2017-11-01T22:38:50.126Z,38.67
2017-11-01T22:41:18.518Z,36.10
2017-11-01T22:43:47.684Z,37.40
2017-11-01T22:46:16.296Z,39.60
2017-11-01T22:48:45.286Z,35.83
2017-11-01T22:51:14.234Z,38.67
2017-11-01T22:53:43.191Z,38.13
2017-11-01T22:56:12.045Z,36.43
2017-11-01T22:58:41.213Z,36.57
2017-11-01T23:01:10.131Z,36.30
2017-11-01T23:03:39.404Z,36.60
2017-11-01T23:06:07.888Z,37.77
2017-11-01T23:08:36.223Z,37.87
2017-11-01T23:11:05.357Z,36.90
2017-11-01T23:13:33.741Z,37.40
2017-11-01T23:16:02.112Z,38.30
2017-11-01T23:18:32.001Z,36.47
2017-11-01T23:21:01.336Z,39.27
2017-11-01T23:23:29.886Z,36.67
2017-11-01T23:25:58.434Z,38.10
2017-11-01T23:28:27.726Z,37.13
2017-11-01T23:30:56.854Z,34.10
2017-11-01T23:33:25.992Z,36.17
2017-11-01T23:35:55.118Z,36.73
2017-11-01T23:38:23.462Z,33.57
2017-11-01T23:40:51.828Z,34.20
2017-11-01T23:43:21.141Z,34.50
2017-11-01T23:45:50.241Z,30.60
2017-11-01T23:48:19.367Z,32.80
2017-11-01T23:50:47.782Z,31.63
2017-11-01T23:53:16.913Z,31.87
2017-11-01T23:55:46.707Z,32.43
2017-11-01T23:58:15.863Z,32.27
